Time;durP1;ratioP1;P1;durP2;ratioP2;P2;SDS_P1;SDS_P2;PMS_P1;PMS_P2;Temp;Humidity;BMP_temperature;BMP_pressure;BME280_temperature;BME280_humidity;BME280_pressure;Samples;Min_cycle;Max_cycle;Signal;HPM_P1;HPM_P2
2021/08/23 00:02:17;;;;;;;10.32;2.60;;;22.80;69.90;;;;;;5091186;28;20519;-69
2021/08/23 00:04:43;;;;;;;4.93;2.50;;;22.80;69.70;;;;;;5091354;28;20032;-69
2021/08/23 00:07:08;;;;;;;5.40;3.08;;;22.80;69.60;;;;;;5091116;28;20028;-69
2021/08/23 00:09:34;;;;;;;8.27;2.70;;;22.80;69.30;;;;;;5091230;28;20130;-69
2021/08/23 00:12:00;;;;;;;6.35;2.58;;;22.80;69.20;;;;;;5091150;28;20028;-70
2021/08/23 00:14:26;;;;;;;4.55;2.50;;;22.80;68.90;;;;;;5091210;28;20488;-70
2021/08/23 00:16:52;;;;;;;4.88;1.85;;;22.90;69.00;;;;;;5090889;28;20090;-69
2021/08/23 00:19:21;;;;;;;4.28;2.67;;;22.80;68.90;;;;;;5090756;28;20048;-69
2021/08/23 00:21:50;;;;;;;7.75;2.65;;;22.90;68.50;;;;;;5090950;28;20016;-70
2021/08/23 00:24:22;;;;;;;4.40;2.60;;;23.00;68.00;;;;;;5090942;28;20031;-70
2021/08/23 00:26:50;;;;;;;8.15;2.50;;;23.00;68.10;;;;;;5090917;28;20020;-69
2021/08/23 00:29:16;;;;;;;5.90;2.60;;;23.10;67.30;;;;;;5090839;28;20458;-69
2021/08/23 00:31:42;;;;;;;5.68;3.00;;;23.20;67.20;;;;;;5090557;28;20488;-70
2021/08/23 00:34:08;;;;;;;7.38;3.58;;;23.40;65.80;;;;;;5072594;28;20035;-69
2021/08/23 00:36:33;;;;;;;10.63;2.75;;;23.60;65.10;;;;;;5090743;28;20066;-69
2021/08/23 00:38:59;;;;;;;5.80;2.80;;;23.80;64.30;;;;;;5072189;28;20032;-69
2021/08/23 00:41:25;;;;;;;4.88;2.80;;;23.80;64.40;;;;;;5072469;28;20412;-69
2021/08/23 00:43:50;;;;;;;3.75;2.30;;;23.80;64.20;;;;;;5090874;28;20024;-69
2021/08/23 00:46:16;;;;;;;7.47;2.50;;;23.70;64.50;;;;;;5090720;28;20028;-69
2021/08/23 00:48:41;;;;;;;3.70;2.15;;;23.60;65.00;;;;;;5072198;28;20032;-69
2021/08/23 00:51:07;;;;;;;8.68;2.88;;;23.50;65.50;;;;;;5090251;28;20028;-69
2021/08/23 00:53:33;;;;;;;5.45;2.72;;;23.50;65.50;;;;;;5090204;28;20024;-70
2021/08/23 00:55:59;;;;;;;5.63;2.55;;;23.40;65.60;;;;;;5090419;28;20031;-70
2021/08/23 00:58:25;;;;;;;8.85;2.25;;;23.40;66.10;;;;;;5090423;28;20035;-70
2021/08/23 01:01:27;;;;;;;3.05;1.80;;;23.30;66.30;;;;;;5090319;28;20040;-69
2021/08/23 01:04:06;;;;;;;7.15;2.45;;;23.30;66.70;;;;;;5090188;28;20111;-70
2021/08/23 01:06:33;;;;;;;5.00;2.67;;;23.20;67.00;;;;;;5089800;28;20139;-69
2021/08/23 01:09:08;;;;;;;4.18;2.58;;;23.10;67.10;;;;;;5090049;28;20035;-70
2021/08/23 01:11:41;;;;;;;3.88;2.40;;;23.10;67.40;;;;;;5089938;28;20020;-69
2021/08/23 01:14:07;;;;;;;5.88;2.05;;;23.10;67.70;;;;;;5089990;28;20024;-69
2021/08/23 01:16:33;;;;;;;6.63;2.30;;;23.10;67.60;;;;;;5089888;28;20114;-69
2021/08/23 01:18:58;;;;;;;4.35;2.55;;;23.10;67.80;;;;;;5089407;28;20076;-69
2021/08/23 01:21:28;;;;;;;4.57;2.42;;;23.00;68.00;;;;;;5089935;28;20472;-69
2021/08/23 01:23:57;;;;;;;4.85;2.20;;;23.00;68.20;;;;;;5089761;28;20023;-70
2021/08/23 01:26:26;;;;;;;7.85;2.40;;;22.90;68.30;;;;;;5071528;28;20020;-70
2021/08/23 01:29:11;;;;;;;6.65;2.40;;;22.90;68.40;;;;;;5089529;28;20020;-70
2021/08/23 01:31:44;;;;;;;3.03;1.80;;;22.90;68.50;;;;;;5089601;28;20119;-70
2021/08/23 01:34:11;;;;;;;6.82;3.22;;;22.80;68.90;;;;;;5071288;28;20020;-70
2021/08/23 01:36:37;;;;;;;4.80;2.20;;;22.70;69.10;;;;;;5089806;28;20261;-69
2021/08/23 01:39:03;;;;;;;3.72;2.55;;;22.60;69.20;;;;;;5089540;28;20028;-70
2021/08/23 01:41:29;;;;;;;3.83;2.22;;;22.60;69.20;;;;;;5089486;28;20032;-70
2021/08/23 01:43:55;;;;;;;4.43;2.08;;;22.60;69.50;;;;;;5089354;28;20510;-69
2021/08/23 01:46:20;;;;;;;6.07;1.98;;;22.60;69.70;;;;;;5089321;28;20032;-69
2021/08/23 01:48:46;;;;;;;4.90;2.20;;;22.60;69.70;;;;;;5089255;28;20020;-70
2021/08/23 01:51:12;;;;;;;3.33;2.08;;;22.60;70.00;;;;;;5089253;28;20089;-70
2021/08/23 01:53:38;;;;;;;4.93;2.60;;;22.50;70.00;;;;;;5089106;28;20088;-69
2021/08/23 01:56:04;;;;;;;7.28;2.58;;;22.50;70.00;;;;;;5089210;28;20040;-69
2021/08/23 01:58:30;;;;;;;5.30;2.70;;;22.50;70.20;;;;;;5089211;28;20020;-70
2021/08/23 02:00:55;;;;;;;3.55;2.30;;;22.50;70.20;;;;;;5088782;28;20043;-69
2021/08/23 02:03:21;;;;;;;5.28;2.00;;;22.60;70.00;;;;;;5088976;28;20594;-70
2021/08/23 02:05:47;;;;;;;3.30;1.75;;;22.60;69.80;;;;;;5089078;28;20488;-70
2021/08/23 02:08:13;;;;;;;4.72;2.10;;;22.60;70.40;;;;;;5089075;28;20172;-69
2021/08/23 02:10:39;;;;;;;3.35;2.47;;;22.60;70.50;;;;;;5089224;28;20035;-70
2021/08/23 02:13:04;;;;;;;8.80;2.28;;;22.60;70.70;;;;;;5088751;28;21018;-69
2021/08/23 02:15:30;;;;;;;9.50;2.50;;;22.50;70.80;;;;;;5088956;28;20103;-69
2021/08/23 02:17:56;;;;;;;5.40;3.10;;;22.50;70.70;;;;;;5088156;28;20068;-69
2021/08/23 02:20:22;;;;;;;4.00;2.65;;;22.50;70.80;;;;;;5088531;28;20044;-69
2021/08/23 02:22:48;;;;;;;6.90;2.60;;;22.50;70.80;;;;;;5088812;28;20067;-70
2021/08/23 02:25:21;;;;;;;3.78;2.20;;;22.40;70.90;;;;;;5070473;28;20020;-70
2021/08/23 02:27:46;;;;;;;6.65;2.45;;;22.40;71.20;;;;;;5088921;28;20060;-69
2021/08/23 02:30:12;;;;;;;7.40;2.45;;;22.40;71.40;;;;;;5088685;28;20064;-70
2021/08/23 02:32:38;;;;;;;3.80;2.30;;;22.40;71.20;;;;;;5088453;28;20032;-70
2021/08/23 02:35:04;;;;;;;6.95;2.75;;;22.40;71.30;;;;;;5088504;28;20028;-70
2021/08/23 02:37:30;;;;;;;4.93;2.35;;;22.30;71.20;;;;;;5088440;28;20020;-70
2021/08/23 02:39:56;;;;;;;5.20;3.17;;;22.30;71.40;;;;;;5088398;28;20036;-69
2021/08/23 02:42:21;;;;;;;4.72;2.65;;;22.20;71.50;;;;;;5070674;28;20100;-70
2021/08/23 02:44:47;;;;;;;6.70;2.40;;;22.20;71.40;;;;;;5088174;28;20024;-69
2021/08/23 02:47:12;;;;;;;5.85;2.67;;;22.30;71.40;;;;;;5088565;28;20028;-70
2021/08/23 02:49:38;;;;;;;5.13;2.75;;;22.30;71.30;;;;;;5088428;28;20456;-69
2021/08/23 02:52:04;;;;;;;4.10;2.85;;;22.20;71.40;;;;;;5088286;28;20032;-69
2021/08/23 02:54:29;;;;;;;4.28;2.55;;;22.20;71.60;;;;;;5088332;28;20448;-69
2021/08/23 02:56:55;;;;;;;9.38;2.95;;;22.20;71.60;;;;;;5070067;28;20036;-69
2021/08/23 02:59:21;;;;;;;4.53;2.45;;;22.20;71.70;;;;;;5088235;28;20032;-69
2021/08/23 03:01:46;;;;;;;6.63;2.33;;;22.20;71.70;;;;;;5088511;28;20043;-69
2021/08/23 03:04:12;;;;;;;4.45;2.55;;;22.20;71.60;;;;;;5088357;28;20024;-69
2021/08/23 03:06:38;;;;;;;4.43;2.15;;;22.20;71.80;;;;;;5088375;28;20055;-69
2021/08/23 03:09:03;;;;;;;8.43;2.70;;;22.20;72.00;;;;;;5088241;28;20450;-70
2021/08/23 03:11:30;;;;;;;6.15;2.95;;;22.20;72.20;;;;;;5070093;28;20032;-69
2021/08/23 03:13:56;;;;;;;4.22;2.40;;;22.10;72.20;;;;;;5088257;28;20103;-70
2021/08/23 03:16:22;;;;;;;4.78;2.40;;;22.20;72.40;;;;;;5088192;28;20024;-69
2021/08/23 03:18:48;;;;;;;6.68;2.05;;;22.20;72.30;;;;;;5069625;28;20564;-69
2021/08/23 03:21:13;;;;;;;3.47;2.45;;;22.10;72.20;;;;;;5088315;28;20035;-69
2021/08/23 03:23:39;;;;;;;6.43;2.60;;;22.10;72.30;;;;;;5088153;28;20503;-70
2021/08/23 03:26:05;;;;;;;4.30;2.33;;;22.10;72.60;;;;;;5088133;28;20036;-70
2021/08/23 03:28:31;;;;;;;6.18;2.38;;;22.00;72.70;;;;;;5071073;28;20108;-69
2021/08/23 03:30:57;;;;;;;4.70;2.20;;;22.00;72.70;;;;;;5091639;28;20089;-69
2021/08/23 03:33:23;;;;;;;7.68;2.63;;;22.00;73.00;;;;;;5091949;28;20483;-69
2021/08/23 03:35:49;;;;;;;7.93;2.38;;;22.00;73.00;;;;;;5091781;28;20032;-70
2021/08/23 03:38:14;;;;;;;3.90;2.58;;;22.00;73.00;;;;;;5092015;28;20531;-69
2021/08/23 03:40:40;;;;;;;4.47;2.50;;;21.90;73.00;;;;;;5073421;28;20071;-69
2021/08/23 03:43:06;;;;;;;4.63;2.65;;;22.00;73.20;;;;;;5091636;28;20024;-69
2021/08/23 03:45:31;;;;;;;6.18;2.22;;;22.00;73.30;;;;;;5091545;28;20036;-70
2021/08/23 03:47:57;;;;;;;6.03;2.53;;;22.00;73.20;;;;;;5092240;28;20024;-69
2021/08/23 03:50:23;;;;;;;6.82;2.72;;;22.00;73.30;;;;;;5091820;28;20031;-70
2021/08/23 03:52:49;;;;;;;8.77;3.17;;;22.00;73.50;;;;;;5073151;28;20448;-69
2021/08/23 03:55:15;;;;;;;5.05;2.38;;;21.90;73.80;;;;;;5091587;28;20077;-69
2021/08/23 03:57:41;;;;;;;8.00;2.60;;;21.90;74.10;;;;;;5091769;28;20032;-69
2021/08/23 04:00:09;;;;;;;5.63;2.40;;;21.90;74.40;;;;;;5091378;28;20519;-69
2021/08/23 04:02:35;;;;;;;5.25;2.20;;;21.90;74.50;;;;;;5091388;28;20016;-70
2021/08/23 04:05:01;;;;;;;5.03;2.33;;;21.80;74.60;;;;;;5091149;28;20412;-69
2021/08/23 04:07:26;;;;;;;5.30;2.28;;;21.90;74.90;;;;;;5091555;28;20036;-69
2021/08/23 04:09:52;;;;;;;8.00;2.67;;;21.80;74.90;;;;;;5091251;28;20553;-69
2021/08/23 04:12:18;;;;;;;6.68;2.42;;;21.80;75.40;;;;;;5091178;28;20023;-69
2021/08/23 04:14:44;;;;;;;5.97;2.83;;;21.80;75.60;;;;;;5090927;28;20553;-69
2021/08/23 04:17:09;;;;;;;6.20;2.60;;;21.80;75.70;;;;;;5091214;28;20032;-69
2021/08/23 04:19:35;;;;;;;8.00;3.03;;;21.70;76.60;;;;;;5090757;28;20253;-69
2021/08/23 04:22:01;;;;;;;4.13;2.33;;;21.70;76.30;;;;;;5090575;28;20412;-69
2021/08/23 04:24:26;;;;;;;7.68;2.88;;;21.70;76.70;;;;;;5072710;28;20404;-69
2021/08/23 04:26:52;;;;;;;7.57;2.63;;;21.70;76.30;;;;;;5090773;28;20552;-69
2021/08/23 04:29:18;;;;;;;7.72;3.58;;;21.70;76.70;;;;;;5090393;28;20035;-68
2021/08/23 04:31:44;;;;;;;7.82;3.15;;;21.70;76.80;;;;;;5072222;28;20028;-70
2021/08/23 04:34:10;;;;;;;9.40;3.28;;;21.70;77.20;;;;;;5090869;28;20484;-69
2021/08/23 04:36:37;;;;;;;8.48;2.97;;;21.70;78.00;;;;;;5090669;28;20056;-69
2021/08/23 04:39:04;;;;;;;8.10;2.83;;;21.60;79.10;;;;;;5072239;28;20024;-69
2021/08/23 04:41:35;;;;;;;6.95;3.65;;;21.50;78.90;;;;;;5089646;28;20479;-69
2021/08/23 04:44:01;;;;;;;8.20;2.95;;;21.50;79.10;;;;;;5090521;28;20533;-69
2021/08/23 04:46:26;;;;;;;9.95;2.95;;;21.50;79.40;;;;;;5090636;28;20031;-70
2021/08/23 04:48:52;;;;;;;12.60;3.13;;;21.50;79.70;;;;;;5090389;28;20020;-69
2021/08/23 04:51:18;;;;;;;12.73;3.13;;;21.60;80.40;;;;;;5090147;28;20032;-68
2021/08/23 04:53:43;;;;;;;11.35;3.28;;;21.50;80.20;;;;;;5090498;28;20545;-68
2021/08/23 04:56:10;;;;;;;12.07;2.65;;;21.60;79.90;;;;;;5090213;28;20111;-69
2021/08/23 04:58:36;;;;;;;11.93;2.70;;;21.60;80.00;;;;;;5090212;28;20024;-68
2021/08/23 05:01:02;;;;;;;5.65;2.80;;;21.70;80.30;;;;;;5071603;28;20050;-68
2021/08/23 05:03:27;;;;;;;8.20;3.03;;;21.70;79.60;;;;;;5089805;28;20032;-69
2021/08/23 05:05:53;;;;;;;4.82;2.67;;;21.80;79.30;;;;;;5089964;28;20027;-69
2021/08/23 05:08:19;;;;;;;7.15;2.35;;;21.90;79.20;;;;;;5089983;28;20070;-69
2021/08/23 05:10:46;;;;;;;4.20;2.75;;;22.00;78.70;;;;;;5089706;28;20488;-69
2021/08/23 05:13:11;;;;;;;4.97;2.90;;;22.10;79.00;;;;;;5089831;28;20024;-69
2021/08/23 05:15:37;;;;;;;6.40;2.65;;;22.10;78.90;;;;;;5089815;28;20028;-69
2021/08/23 05:18:02;;;;;;;4.72;2.47;;;22.20;78.10;;;;;;5089718;28;20794;-69
2021/08/23 05:20:28;;;;;;;3.20;2.50;;;22.20;78.00;;;;;;5089572;28;20575;-68
2021/08/23 05:22:54;;;;;;;4.75;2.60;;;22.30;77.10;;;;;;5089531;28;20020;-70
2021/08/23 05:25:20;;;;;;;5.32;2.70;;;22.40;76.40;;;;;;5089581;28;20114;-69
2021/08/23 05:27:45;;;;;;;18.35;3.55;;;22.50;76.50;;;;;;5089733;28;20020;-69
2021/08/23 05:30:12;;;;;;;7.25;3.10;;;22.60;75.90;;;;;;5071478;28;20451;-69
2021/08/23 05:32:38;;;;;;;4.32;2.95;;;22.70;74.90;;;;;;5071492;28;20054;-69
2021/08/23 05:35:04;;;;;;;4.72;2.80;;;22.80;74.50;;;;;;5071192;28;20407;-69
2021/08/23 05:37:30;;;;;;;8.25;3.15;;;22.70;75.00;;;;;;5071147;28;20365;-69
2021/08/23 05:39:55;;;;;;;3.90;2.75;;;22.80;76.20;;;;;;5089410;28;20055;-69
2021/08/23 05:42:21;;;;;;;5.68;2.95;;;22.70;75.90;;;;;;5089366;28;20091;-69
2021/08/23 05:44:47;;;;;;;5.88;3.03;;;22.60;76.60;;;;;;5071204;28;20762;-69
2021/08/23 05:47:13;;;;;;;5.57;2.80;;;22.50;77.30;;;;;;5089440;28;20016;-69
2021/08/23 05:49:38;;;;;;;10.98;3.47;;;22.40;77.60;;;;;;5089265;28;20032;-69
2021/08/23 05:52:04;;;;;;;8.98;2.58;;;22.50;78.10;;;;;;5089131;28;20032;-69
2021/08/23 05:54:30;;;;;;;6.72;2.58;;;22.50;77.80;;;;;;5089173;28;20032;-69
2021/08/23 05:56:57;;;;;;;7.93;2.83;;;22.50;77.70;;;;;;5088892;28;20029;-69
2021/08/23 05:59:23;;;;;;;5.72;3.58;;;22.60;77.60;;;;;;5088968;28;20580;-69
2021/08/23 06:01:56;;;;;;;6.30;3.15;;;22.70;77.80;;;;;;5089114;28;20107;-69
2021/08/23 06:04:22;;;;;;;4.80;2.88;;;22.80;77.70;;;;;;5089031;28;20115;-70
2021/08/23 06:06:49;;;;;;;6.05;3.05;;;22.90;77.40;;;;;;5088775;28;20508;-69
2021/08/23 06:09:15;;;;;;;4.18;2.67;;;23.00;78.00;;;;;;5088932;28;20115;-69
2021/08/23 06:11:41;;;;;;;7.25;2.65;;;23.10;77.20;;;;;;5088945;28;20063;-69
2021/08/23 06:14:07;;;;;;;8.02;3.35;;;23.10;75.80;;;;;;5088839;28;20064;-69
2021/08/23 06:16:32;;;;;;;5.32;2.80;;;23.20;76.00;;;;;;5070662;28;20024;-69
2021/08/23 06:18:58;;;;;;;5.65;2.75;;;23.20;75.60;;;;;;5088353;28;20056;-69
2021/08/23 06:21:23;;;;;;;7.45;2.60;;;23.20;75.20;;;;;;5088644;28;20547;-69
2021/08/23 06:23:51;;;;;;;9.27;3.55;;;23.30;75.50;;;;;;5088831;28;20667;-68
2021/08/23 06:26:16;;;;;;;6.95;2.80;;;23.40;74.90;;;;;;5088659;28;20028;-69
2021/08/23 06:28:42;;;;;;;6.68;3.10;;;23.50;74.40;;;;;;5088594;28;20034;-70
2021/08/23 06:31:08;;;;;;;5.13;3.28;;;23.60;74.10;;;;;;5070326;28;20032;-69
2021/08/23 06:33:34;;;;;;;4.60;3.10;;;23.70;73.70;;;;;;5088586;28;20426;-69
2021/08/23 06:36:00;;;;;;;3.55;2.63;;;23.90;73.40;;;;;;5088442;28;20032;-68
2021/08/23 06:38:26;;;;;;;4.25;3.17;;;24.10;73.20;;;;;;5088493;28;20032;-69
2021/08/23 06:40:51;;;;;;;3.80;2.50;;;24.70;71.80;;;;;;5088289;28;20058;-69
2021/08/23 06:43:17;;;;;;;5.57;2.92;;;25.80;69.20;;;;;;5088426;28;20108;-70
2021/08/23 06:45:43;;;;;;;8.32;2.92;;;26.90;65.50;;;;;;5088385;28;20066;-69
2021/08/23 06:48:08;;;;;;;7.40;3.13;;;27.80;61.90;;;;;;5088388;28;20929;-69
2021/08/23 06:50:34;;;;;;;9.90;3.33;;;28.70;59.20;;;;;;5088458;28;20050;-71
2021/08/23 06:53:00;;;;;;;10.18;3.75;;;29.20;56.70;;;;;;5088010;28;20131;-69
2021/08/23 06:55:25;;;;;;;7.47;3.80;;;28.90;56.20;;;;;;5088372;28;20016;-70
2021/08/23 06:57:51;;;;;;;6.28;3.17;;;28.30;55.40;;;;;;5070276;28;20043;-70
2021/08/23 07:00:17;;;;;;;5.28;2.95;;;28.00;57.00;;;;;;5088201;28;20054;-69
2021/08/23 07:02:42;;;;;;;6.38;3.00;;;28.10;56.60;;;;;;5088301;28;20017;-69
2021/08/23 07:05:09;;;;;;;5.50;3.05;;;27.80;57.00;;;;;;5092120;28;20032;-69
2021/08/23 07:07:35;;;;;;;4.88;3.08;;;27.50;58.40;;;;;;5092304;28;20031;-69
2021/08/23 07:10:01;;;;;;;7.20;3.10;;;27.40;59.20;;;;;;5092345;28;20035;-70
2021/08/23 07:12:26;;;;;;;4.78;2.80;;;27.60;59.50;;;;;;5092235;28;20059;-69
2021/08/23 07:14:52;;;;;;;5.43;2.70;;;27.90;60.20;;;;;;5092384;28;20157;-70
2021/08/23 07:17:18;;;;;;;5.22;3.08;;;28.40;59.50;;;;;;5092137;28;20077;-70
2021/08/23 07:19:44;;;;;;;7.53;3.47;;;29.10;57.20;;;;;;5091814;28;20048;-70
2021/08/23 07:22:15;;;;;;;7.30;2.95;;;29.50;55.80;;;;;;5091856;28;20044;-70
2021/08/23 07:24:41;;;;;;;8.52;3.28;;;29.90;54.60;;;;;;5091947;28;20035;-70
2021/08/23 07:27:06;;;;;;;8.38;3.05;;;30.10;53.80;;;;;;5091971;28;20549;-70
2021/08/23 07:29:32;;;;;;;9.20;3.50;;;30.20;52.70;;;;;;5091839;28;20032;-71
2021/08/23 07:31:57;;;;;;;10.63;3.17;;;30.50;53.10;;;;;;5091722;28;20107;-69
2021/08/23 07:34:23;;;;;;;4.75;2.97;;;30.90;50.90;;;;;;5091888;28;20400;-71
2021/08/23 07:36:51;;;;;;;7.97;3.70;;;31.30;50.00;;;;;;5091620;28;20067;-69
2021/08/23 07:39:17;;;;;;;6.43;3.78;;;31.40;49.00;;;;;;5091722;28;20032;-71
2021/08/23 07:41:42;;;;;;;11.82;3.80;;;31.70;48.60;;;;;;5091721;28;20031;-70
2021/08/23 07:44:08;;;;;;;7.45;3.55;;;32.40;48.30;;;;;;5091714;28;20110;-71
2021/08/23 07:46:33;;;;;;;6.72;3.17;;;32.60;47.40;;;;;;5091728;28;20065;-71
2021/08/23 07:48:59;;;;;;;4.05;2.70;;;32.30;46.50;;;;;;5091449;28;20035;-70
2021/08/23 07:51:25;;;;;;;5.93;3.25;;;32.20;47.60;;;;;;5091457;28;20724;-71
2021/08/23 07:53:50;;;;;;;10.38;2.95;;;32.30;47.70;;;;;;5091676;28;20035;-70
2021/08/23 07:56:16;;;;;;;7.55;3.53;;;32.40;47.30;;;;;;5091255;28;20028;-70
2021/08/23 07:58:41;;;;;;;4.15;3.20;;;31.90;47.90;;;;;;5091680;28;20024;-70
2021/08/23 08:01:08;;;;;;;8.82;3.28;;;31.70;48.60;;;;;;5072995;28;20039;-70
2021/08/23 08:03:34;;;;;;;10.45;3.97;;;31.30;49.30;;;;;;5091299;28;20031;-70
2021/08/23 08:05:59;;;;;;;6.25;3.67;;;30.80;50.70;;;;;;5091089;28;20024;-70
2021/08/23 08:08:25;;;;;;;9.02;3.35;;;30.50;50.90;;;;;;5091208;28;20061;-69
2021/08/23 08:10:51;;;;;;;6.80;3.88;;;30.30;51.80;;;;;;5091146;28;20024;-69
2021/08/23 08:13:16;;;;;;;7.95;3.53;;;30.10;52.60;;;;;;5091116;28;20040;-69
2021/08/23 08:15:42;;;;;;;4.95;3.38;;;30.00;52.80;;;;;;5089811;28;20537;-69
2021/08/23 08:18:08;;;;;;;5.32;3.42;;;30.10;52.00;;;;;;5091008;28;20032;-69
2021/08/23 08:20:34;;;;;;;7.57;4.60;;;30.10;51.90;;;;;;5090730;28;20059;-69
2021/08/23 08:22:59;;;;;;;8.13;3.92;;;29.80;53.50;;;;;;5090879;28;20076;-69
2021/08/23 08:25:25;;;;;;;6.90;3.53;;;29.50;54.50;;;;;;5090838;28;20035;-69
2021/08/23 08:27:51;;;;;;;5.85;3.60;;;29.30;54.50;;;;;;5090951;28;20031;-69
2021/08/23 08:30:17;;;;;;;10.63;3.78;;;29.10;54.80;;;;;;5090747;28;20035;-69
2021/08/23 08:32:45;;;;;;;5.22;3.35;;;28.90;55.30;;;;;;5090589;28;20024;-71
2021/08/23 08:35:11;;;;;;;9.20;4.30;;;28.80;56.00;;;;;;5090594;28;20036;-70
2021/08/23 08:37:37;;;;;;;8.52;4.05;;;28.70;56.10;;;;;;5090213;28;20053;-70
2021/08/23 08:40:04;;;;;;;8.93;3.47;;;28.60;56.00;;;;;;5090405;28;20511;-71
2021/08/23 08:42:30;;;;;;;6.18;4.13;;;28.60;56.50;;;;;;5090684;28;20024;-71
2021/08/23 08:44:55;;;;;;;7.65;3.80;;;28.60;56.60;;;;;;5089504;28;20028;-70
2021/08/23 08:47:21;;;;;;;8.95;3.97;;;28.40;56.70;;;;;;5090276;28;20361;-71
2021/08/23 08:49:48;;;;;;;9.07;4.03;;;28.20;57.20;;;;;;5090348;28;20028;-71
2021/08/23 08:52:15;;;;;;;8.75;4.35;;;28.10;57.00;;;;;;5072084;28;20020;-71
2021/08/23 08:54:42;;;;;;;6.97;5.45;;;28.10;58.00;;;;;;5090001;28;20024;-69
2021/08/23 08:57:08;;;;;;;10.45;5.22;;;28.00;58.20;;;;;;5089867;28;20028;-69
2021/08/23 08:59:36;;;;;;;9.15;5.63;;;28.00;58.40;;;;;;5090083;28;20043;-69
2021/08/23 09:02:03;;;;;;;26.48;6.78;;;27.80;58.70;;;;;;5090151;28;20105;-68
2021/08/23 09:04:37;;;;;;;10.20;5.43;;;27.70;59.00;;;;;;5089969;28;20028;-69
2021/08/23 09:07:05;;;;;;;10.65;6.85;;;27.40;59.90;;;;;;5089901;28;20032;-68
2021/08/23 09:09:31;;;;;;;16.75;6.68;;;27.20;61.80;;;;;;5089815;28;20038;-70
2021/08/23 09:12:06;;;;;;;15.32;7.30;;;27.00;62.90;;;;;;5089360;28;20020;-68
2021/08/23 09:14:33;;;;;;;10.43;4.97;;;26.90;64.00;;;;;;5089212;28;20389;-68
2021/08/23 09:17:10;;;;;;;8.82;4.45;;;26.90;64.40;;;;;;5070658;28;20085;-69
2021/08/23 09:19:37;;;;;;;6.47;3.97;;;26.80;65.00;;;;;;5088654;28;20036;-70
2021/08/23 09:22:09;;;;;;;7.47;4.00;;;26.70;65.20;;;;;;5088903;28;20153;-70
2021/08/23 09:24:38;;;;;;;6.40;4.90;;;26.60;66.00;;;;;;5088971;28;20028;-70
2021/08/23 09:27:10;;;;;;;6.55;4.35;;;26.40;66.30;;;;;;5070181;28;20031;-70
2021/08/23 09:29:54;;;;;;;11.98;4.97;;;26.30;67.30;;;;;;5088675;28;20128;-68
2021/08/23 09:32:20;;;;;;;8.45;4.38;;;26.30;69.40;;;;;;5070647;28;20504;-69
2021/08/23 09:34:46;;;;;;;14.57;5.07;;;26.40;69.30;;;;;;5089346;28;20039;-69
2021/08/23 09:37:32;;;;;;;14.63;5.00;;;26.70;68.50;;;;;;5089601;28;20048;-69
2021/08/23 09:40:11;;;;;;;8.33;4.47;;;27.00;67.10;;;;;;5089422;28;20127;-69
2021/08/23 09:42:37;;;;;;;7.28;4.25;;;27.40;65.70;;;;;;5089444;28;20454;-69
2021/08/23 09:45:17;;;;;;;8.70;4.63;;;27.70;65.00;;;;;;5089091;28;20114;-69
2021/08/23 09:47:43;;;;;;;7.30;3.95;;;27.90;63.90;;;;;;5089211;28;20058;-70
2021/08/23 09:50:16;;;;;;;6.50;4.10;;;28.00;63.30;;;;;;5071240;28;20123;-69
2021/08/23 09:52:41;;;;;;;9.00;4.70;;;28.10;62.70;;;;;;5070900;28;20026;-70
2021/08/23 09:55:09;;;;;;;7.03;3.95;;;28.10;62.60;;;;;;5089081;28;20036;-70
2021/08/23 09:57:38;;;;;;;6.53;4.47;;;28.30;63.30;;;;;;5089159;28;20039;-70
2021/08/23 10:00:08;;;;;;;6.43;4.05;;;28.30;62.50;;;;;;5089110;28;20036;-70
2021/08/23 10:02:34;;;;;;;4.63;3.60;;;28.30;61.60;;;;;;5088954;28;20020;-70
2021/08/23 10:05:01;;;;;;;6.20;4.35;;;28.30;61.40;;;;;;5088899;28;20081;-70
2021/08/23 10:07:29;;;;;;;8.70;5.43;;;28.20;61.90;;;;;;5070783;28;20064;-70
2021/08/23 10:10:01;;;;;;;10.05;4.57;;;28.10;62.80;;;;;;5089029;28;20020;-70
2021/08/23 10:12:28;;;;;;;8.65;5.38;;;28.00;62.40;;;;;;5070422;28;20501;-69
2021/08/23 10:14:54;;;;;;;9.93;4.32;;;27.90;62.20;;;;;;5070562;28;20490;-70
2021/08/23 10:17:21;;;;;;;5.65;4.13;;;27.80;63.00;;;;;;5088682;28;20032;-69
2021/08/23 10:19:47;;;;;;;8.10;4.85;;;27.80;62.60;;;;;;5088715;28;20829;-70
2021/08/23 10:22:14;;;;;;;13.60;4.50;;;27.70;62.50;;;;;;5088634;28;20115;-70
2021/08/23 10:24:41;;;;;;;12.30;4.65;;;27.50;63.10;;;;;;5070549;28;20028;-70
2021/08/23 10:27:07;;;;;;;8.20;4.45;;;27.20;63.30;;;;;;5088647;28;20093;-70
2021/08/23 10:29:40;;;;;;;10.75;4.57;;;27.00;63.70;;;;;;5088754;28;20063;-70
2021/08/23 10:32:08;;;;;;;9.70;4.60;;;26.90;64.40;;;;;;5088538;28;20047;-69
2021/08/23 10:34:34;;;;;;;9.68;4.88;;;27.00;65.40;;;;;;5088643;28;20059;-70
2021/08/23 10:37:00;;;;;;;8.65;4.05;;;27.10;65.20;;;;;;5088297;28;20055;-70
2021/08/23 10:39:28;;;;;;;10.32;4.63;;;27.20;65.30;;;;;;5087676;28;20819;-68
2021/08/23 10:41:56;;;;;;;7.07;4.57;;;27.30;66.00;;;;;;5088395;28;20541;-70
2021/08/23 10:44:33;;;;;;;8.75;3.95;;;27.50;65.20;;;;;;5088384;28;20047;-68
2021/08/23 10:47:10;;;;;;;5.18;4.07;;;27.50;66.00;;;;;;5088203;28;20807;-70
2021/08/23 10:49:47;;;;;;;7.57;4.50;;;27.60;64.60;;;;;;5088342;28;20467;-69
2021/08/23 10:52:15;;;;;;;11.05;4.50;;;27.60;64.70;;;;;;5088324;28;20025;-69
2021/08/23 10:54:42;;;;;;;5.57;3.88;;;27.60;64.40;;;;;;5088189;28;20467;-70
2021/08/23 10:57:11;;;;;;;6.75;3.78;;;27.70;63.60;;;;;;5088294;28;20059;-70
2021/08/23 10:59:41;;;;;;;9.60;4.18;;;27.70;63.90;;;;;;5088047;28;20389;-70
2021/08/23 11:02:09;;;;;;;8.20;3.78;;;27.60;64.70;;;;;;5088213;28;20044;-70
2021/08/23 11:04:40;;;;;;;9.98;4.68;;;27.50;65.60;;;;;;5088267;28;20017;-69
2021/08/23 11:07:08;;;;;;;8.77;4.35;;;27.50;65.90;;;;;;5088059;28;20036;-69
2021/08/23 11:09:39;;;;;;;16.60;5.70;;;27.40;66.20;;;;;;5088257;28;20028;-69
2021/08/23 11:12:06;;;;;;;10.85;4.30;;;27.20;66.80;;;;;;5088145;28;20028;-69
2021/08/23 11:14:46;;;;;;;6.93;4.55;;;27.20;66.70;;;;;;5069691;28;20027;-69
2021/08/23 11:17:12;;;;;;;9.60;4.47;;;27.20;67.10;;;;;;5087919;28;20038;-68
2021/08/23 11:19:40;;;;;;;6.13;4.88;;;27.20;67.60;;;;;;5069450;28;20063;-69
2021/08/23 11:22:07;;;;;;;6.60;5.20;;;27.20;66.60;;;;;;5087981;28;20051;-69
2021/08/23 11:24:35;;;;;;;13.00;5.35;;;27.40;65.40;;;;;;5069636;28;20614;-69
2021/08/23 11:27:02;;;;;;;7.88;4.65;;;27.40;65.10;;;;;;5087807;28;20028;-70
2021/08/23 11:29:39;;;;;;;12.13;5.05;;;27.40;65.00;;;;;;5087800;28;20028;-68
2021/08/23 11:32:07;;;;;;;8.70;4.25;;;27.40;64.70;;;;;;5087652;28;20400;-69
2021/08/23 11:34:34;;;;;;;10.50;4.22;;;27.40;64.10;;;;;;5087785;28;20067;-70
2021/08/23 11:37:02;;;;;;;8.23;4.50;;;27.50;64.50;;;;;;5087641;28;20563;-69
2021/08/23 11:39:30;;;;;;;10.20;4.55;;;27.50;64.70;;;;;;5087776;28;20395;-70
2021/08/23 11:42:00;;;;;;;11.68;4.38;;;27.40;64.90;;;;;;5087837;28;20105;-70
2021/08/23 11:44:26;;;;;;;5.00;3.85;;;27.40;66.10;;;;;;5087951;28;20232;-70
2021/08/23 11:47:01;;;;;;;7.05;3.83;;;27.30;68.50;;;;;;5069415;28;20032;-70
2021/08/23 11:49:35;;;;;;;6.78;3.65;;;27.20;70.00;;;;;;5088615;28;20036;-70
2021/08/23 11:52:14;;;;;;;6.80;4.38;;;27.00;70.10;;;;;;5073163;28;20115;-70
2021/08/23 11:54:45;;;;;;;7.35;3.83;;;27.00;69.10;;;;;;5091556;28;20028;-70
2021/08/23 11:57:11;;;;;;;6.13;3.88;;;27.10;69.50;;;;;;5091308;28;20122;-70
2021/08/23 11:59:36;;;;;;;5.50;4.13;;;27.20;69.00;;;;;;5091362;28;20492;-70
2021/08/23 12:02:12;;;;;;;5.45;3.65;;;27.30;68.30;;;;;;5091155;28;20032;-70
2021/08/23 12:04:38;;;;;;;;;;;27.50;68.60;;;;;;5091739;28;20020;-69
2021/08/23 12:07:04;;;;;;;6.38;3.90;;;27.50;69.50;;;;;;5091249;28;19915;-70
2021/08/23 12:09:30;;;;;;;4.60;3.47;;;27.50;68.30;;;;;;5091150;28;20095;-69
2021/08/23 12:11:56;;;;;;;6.38;3.90;;;27.60;67.80;;;;;;5073178;28;20399;-70
2021/08/23 12:14:28;;;;;;;10.90;3.20;;;27.50;67.70;;;;;;5090991;28;20038;-70
2021/08/23 12:16:54;;;;;;;6.68;3.72;;;27.50;68.00;;;;;;5090773;28;20503;-67
2021/08/23 12:19:20;;;;;;;4.95;3.53;;;27.40;68.40;;;;;;5090742;28;20103;-67
2021/08/23 12:21:49;;;;;;;7.63;3.50;;;27.30;68.90;;;;;;5090412;28;20078;-69
2021/08/23 12:24:15;;;;;;;7.03;4.22;;;27.10;69.60;;;;;;5090912;28;20016;-68
2021/08/23 12:26:56;;;;;;;6.18;3.80;;;26.90;69.90;;;;;;5072638;28;20626;-68
2021/08/23 12:29:34;;;;;;;5.93;3.83;;;26.80;70.30;;;;;;5090683;28;20020;-69
2021/08/23 12:32:07;;;;;;;7.55;3.80;;;26.70;71.20;;;;;;5090622;28;20031;-68
2021/08/23 12:34:41;;;;;;;5.43;3.55;;;26.50;71.80;;;;;;5072820;28;20055;-68
2021/08/23 12:37:07;;;;;;;7.15;4.15;;;26.40;72.40;;;;;;5090793;28;20036;-69
2021/08/23 12:39:32;;;;;;;5.65;3.95;;;26.40;72.90;;;;;;5072564;28;20026;-69
2021/08/23 12:42:01;;;;;;;10.45;3.60;;;26.30;73.50;;;;;;5090842;28;20446;-69
2021/08/23 12:44:27;;;;;;;6.78;3.55;;;26.20;73.90;;;;;;5090752;28;20107;-69
2021/08/23 12:46:53;;;;;;;7.15;4.18;;;26.10;74.60;;;;;;5090358;28;20068;-69